Mitra — PBZW — position and weather

sailwx.info

Track history (hours):
 
Tides and Currents Weather Stations Pressure Air Temp Water Temp Dewpoint Dewpoint Depression Visibility Wind Speed Wind Dir Waves Ship Positions

Oceanographic research ship Mitra (Netherlands)

Detailed information on ship capabilities available from University of Delaware's Ocean Information Center.

Last reported at 2018-May-16 15:31 UTC. Time now 2018-May-20 13:55 UTC.
Position S 24°45' W 046°42'.

Length 223 m; draft 11.1 m.

Type: Ship (hazmat cat A). MMSI: 244670078.

Date/timePositionNaut miles runAvg speedWind from/ knotsBaromVisibWave heightAir tempDewpointWater temp
2018-May-16 15:31S 24°45' W 046°42'216.1
2018-May-16 15:24S 24°43' W 046°41'616.0
2018-May-16 15:00S 24°37' W 046°39'815.7
2018-May-16 14:30S 24°30' W 046°35'816.2
2018-May-16 14:01S 24°23' W 046°31'815.5
2018-May-16 13:30S 24°16' W 046°28'511.0
2018-May-16 13:00S 24°11' W 046°25'713.2
2018-May-16 12:30S 24°05' W 046°23'5 9.8
2018-May-16 12:00S 24°00' W 046°20'3 6.0
2018-May-16 11:27S 23°58' W 046°18'0 0.2
2018-May-16 10:38S 23°58' W 046°17'0 0.0
2018-May-16 10:23S 23°58' W 046°17'0 0.0
2018-May-15 02:15S 23°58' W 046°17'1 4.7
2018-May-15 01:59S 23°59' W 046°17'4 8.4
2018-May-15 01:30S 24°02' W 046°21'4 8.0
2018-May-15 01:00S 24°06' W 046°22'5 9.2
2018-May-15 00:30S 24°10' W 046°22'4 8.3
2018-May-15 00:00S 24°13' W 046°19'0 0.7
2018-May-14 23:30S 24°13' W 046°19'0 0.1
2018-May-14 23:00S 24°13' W 046°19'0 0.0
2018-May-14 22:27S 24°13' W 046°19'0 0.0
2018-May-14 21:51S 24°13' W 046°19'0 0.0
2018-May-14 21:21S 24°13' W 046°19'0 0.0
2018-May-14 20:57S 24°13' W 046°19'0 0.0
2018-May-14 20:27S 24°13' W 046°19'0 0.0
2018-May-14 20:00S 24°13' W 046°19'0 0.0
2018-May-14 19:27S 24°13' W 046°19'0 0.0
2018-May-14 18:57S 24°13' W 046°19'0 0.0
2018-May-14 18:30S 24°13' W 046°19'0 0.0
2018-May-14 18:00S 24°13' W 046°19'0 0.0
2018-May-14 17:27S 24°13' W 046°19'0 0.0
2018-May-14 17:00S 24°13' W 046°19'0 0.0
2018-May-14 16:30S 24°13' W 046°19'0 0.0
2018-May-14 16:00S 24°13' W 046°19'0 0.0
2018-May-14 15:15S 24°13' W 046°19'0 0.1
2018-May-14 14:57S 24°13' W 046°19'0 0.0
2018-May-14 14:30S 24°13' W 046°19'0 0.0
2018-May-14 14:00S 24°13' W 046°19'0 0.1
2018-May-14 13:27S 24°13' W 046°19'0 0.0
2018-May-14 12:57S 24°13' W 046°19'0 0.0
2018-May-14 12:30S 24°13' W 046°19'0 0.0
2018-May-14 11:54S 24°13' W 046°19'0 0.1
2018-May-14 11:30S 24°13' W 046°19'0 0.0
2018-May-14 10:57S 24°13' W 046°19'0 0.0
2018-May-14 10:27S 24°13' W 046°19'0 0.0
2018-May-14 10:00S 24°13' W 046°19'0 0.0
2018-May-14 09:24S 24°13' W 046°19'0 0.0
2018-May-14 08:57S 24°13' W 046°19'0 0.0
2018-May-14 08:27S 24°13' W 046°19'0 0.0
2018-May-14 07:57S 24°13' W 046°19'0 0.0
2018-May-14 07:15S 24°13' W 046°19'0 0.1
2018-May-14 06:57S 24°13' W 046°19'0 0.1
2018-May-14 06:27S 24°13' W 046°19'0 0.0
2018-May-14 05:57S 24°13' W 046°19'0 0.0
2018-May-14 05:30S 24°13' W 046°19'0 0.0
2018-May-14 04:57S 24°13' W 046°19'0 0.0
2018-May-14 04:27S 24°13' W 046°19'0 0.0
2018-May-14 04:00S 24°13' W 046°19'0 0.0
2018-May-14 03:21S 24°13' W 046°19'0 0.0
2018-May-14 02:59S 24°13' W 046°19'0 0.0
2018-May-14 02:29S 24°13' W 046°19'0 0.1
2018-May-14 01:57S 24°13' W 046°19'0 0.0
2018-May-14 00:26S 24°13' W 046°19'0 0.0
2018-May-13 23:57S 24°13' W 046°19'0 0.0
2018-May-13 23:26S 24°13' W 046°19'0 0.0
2018-May-13 22:56S 24°13' W 046°19'0 0.0
2018-May-13 22:27S 24°13' W 046°19'0 0.0
2018-May-13 22:00S 24°13' W 046°19'0 0.0
2018-May-13 21:29S 24°13' W 046°19'0 0.0
2018-May-13 21:00S 24°13' W 046°19'0 0.0
2018-May-13 20:27S 24°13' W 046°19'0 0.0
2018-May-13 19:56S 24°13' W 046°19'0 0.0
2018-May-13 19:30S 24°13' W 046°19'0 0.0
2018-May-13 18:57S 24°13' W 046°19'0 0.0
2018-May-13 18:29S 24°13' W 046°19'0 0.0
2018-May-13 17:59S 24°13' W 046°19'0 0.0
2018-May-13 17:29S 24°13' W 046°19'0 0.0
2018-May-13 16:56S 24°13' W 046°19'0 0.0
2018-May-13 16:21S 24°13' W 046°19'0 0.0
2018-May-13 15:57S 24°13' W 046°19'0 0.0
2018-May-13 15:26S 24°13' W 046°19'0 0.0
2018-May-13 14:57S 24°13' W 046°19'0 0.0
2018-May-13 14:29S 24°13' W 046°19'0 0.0
2018-May-13 13:56S 24°13' W 046°19'0 0.0
2018-May-13 13:27S 24°13' W 046°19'0 0.0
2018-May-13 12:56S 24°13' W 046°19'0 0.0
2018-May-13 12:29S 24°13' W 046°19'1 1.2
2018-May-13 12:00S 24°13' W 046°19'3 7.2
2018-May-13 11:30S 24°17' W 046°18'4 8.1
2018-May-13 11:00S 24°20' W 046°19'  
2018-May-10 22:31S 24°39' W 046°07'713.2
2018-May-10 21:59S 24°43' W 046°14'713.3
2018-May-10 21:29S 24°46' W 046°20'913.3
2018-May-10 20:48S 24°50' W 046°29'713.5
2018-May-10 20:17S 24°53' W 046°36'413.5
2018-May-10 20:00S 24°55' W 046°39'  
Track history (hours):
 
Tides and Currents Weather Stations Pressure Air Temp Water Temp Dewpoint Dewpoint Depression Visibility Wind Speed Wind Dir Waves Ship Positions

Oceanographic research ship Mitra (Netherlands)

Detailed information on ship capabilities available from University of Delaware's Ocean Information Center.

Last reported at 2018-May-16 15:31 UTC. Time now 2018-May-20 13:55 UTC.
Position S 24°45' W 046°42'.

Length 223 m; draft 11.1 m.

Type: Ship (hazmat cat A). MMSI: 244670078.

Date/timePositionNaut miles runAvg speedWind from/ knotsBaromVisibWave heightAir tempDewpointWater temp
2018-May-16 15:31S 24°45' W 046°42'216.1
2018-May-16 15:24S 24°43' W 046°41'616.0
2018-May-16 15:00S 24°37' W 046°39'815.7
2018-May-16 14:30S 24°30' W 046°35'816.2
2018-May-16 14:01S 24°23' W 046°31'815.5
2018-May-16 13:30S 24°16' W 046°28'511.0
2018-May-16 13:00S 24°11' W 046°25'713.2
2018-May-16 12:30S 24°05' W 046°23'5 9.8
2018-May-16 12:00S 24°00' W 046°20'3 6.0
2018-May-16 11:27S 23°58' W 046°18'0 0.2
2018-May-16 10:38S 23°58' W 046°17'0 0.0
2018-May-16 10:23S 23°58' W 046°17'0 0.0
2018-May-15 02:15S 23°58' W 046°17'1 4.7
2018-May-15 01:59S 23°59' W 046°17'4 8.4
2018-May-15 01:30S 24°02' W 046°21'4 8.0
2018-May-15 01:00S 24°06' W 046°22'5 9.2
2018-May-15 00:30S 24°10' W 046°22'4 8.3
2018-May-15 00:00S 24°13' W 046°19'0 0.7
2018-May-14 23:30S 24°13' W 046°19'0 0.1
2018-May-14 23:00S 24°13' W 046°19'0 0.0
2018-May-14 22:27S 24°13' W 046°19'0 0.0
2018-May-14 21:51S 24°13' W 046°19'0 0.0
2018-May-14 21:21S 24°13' W 046°19'0 0.0
2018-May-14 20:57S 24°13' W 046°19'0 0.0
2018-May-14 20:27S 24°13' W 046°19'0 0.0
2018-May-14 20:00S 24°13' W 046°19'0 0.0
2018-May-14 19:27S 24°13' W 046°19'0 0.0
2018-May-14 18:57S 24°13' W 046°19'0 0.0
2018-May-14 18:30S 24°13' W 046°19'0 0.0
2018-May-14 18:00S 24°13' W 046°19'0 0.0
2018-May-14 17:27S 24°13' W 046°19'0 0.0
2018-May-14 17:00S 24°13' W 046°19'0 0.0
2018-May-14 16:30S 24°13' W 046°19'0 0.0
2018-May-14 16:00S 24°13' W 046°19'0 0.0
2018-May-14 15:15S 24°13' W 046°19'0 0.1
2018-May-14 14:57S 24°13' W 046°19'0 0.0
2018-May-14 14:30S 24°13' W 046°19'0 0.0
2018-May-14 14:00S 24°13' W 046°19'0 0.1
2018-May-14 13:27S 24°13' W 046°19'0 0.0
2018-May-14 12:57S 24°13' W 046°19'0 0.0
2018-May-14 12:30S 24°13' W 046°19'0 0.0
2018-May-14 11:54S 24°13' W 046°19'0 0.1
2018-May-14 11:30S 24°13' W 046°19'0 0.0
2018-May-14 10:57S 24°13' W 046°19'0 0.0
2018-May-14 10:27S 24°13' W 046°19'0 0.0
2018-May-14 10:00S 24°13' W 046°19'0 0.0
2018-May-14 09:24S 24°13' W 046°19'0 0.0
2018-May-14 08:57S 24°13' W 046°19'0 0.0
2018-May-14 08:27S 24°13' W 046°19'0 0.0
2018-May-14 07:57S 24°13' W 046°19'0 0.0
2018-May-14 07:15S 24°13' W 046°19'0 0.1
2018-May-14 06:57S 24°13' W 046°19'0 0.1
2018-May-14 06:27S 24°13' W 046°19'0 0.0
2018-May-14 05:57S 24°13' W 046°19'0 0.0
2018-May-14 05:30S 24°13' W 046°19'0 0.0
2018-May-14 04:57S 24°13' W 046°19'0 0.0
2018-May-14 04:27S 24°13' W 046°19'0 0.0
2018-May-14 04:00S 24°13' W 046°19'0 0.0
2018-May-14 03:21S 24°13' W 046°19'0 0.0
2018-May-14 02:59S 24°13' W 046°19'0 0.0
2018-May-14 02:29S 24°13' W 046°19'0 0.1
2018-May-14 01:57S 24°13' W 046°19'0 0.0
2018-May-14 00:26S 24°13' W 046°19'0 0.0
2018-May-13 23:57S 24°13' W 046°19'0 0.0
2018-May-13 23:26S 24°13' W 046°19'0 0.0
2018-May-13 22:56S 24°13' W 046°19'0 0.0
2018-May-13 22:27S 24°13' W 046°19'0 0.0
2018-May-13 22:00S 24°13' W 046°19'0 0.0
2018-May-13 21:29S 24°13' W 046°19'0 0.0
2018-May-13 21:00S 24°13' W 046°19'0 0.0
2018-May-13 20:27S 24°13' W 046°19'0 0.0
2018-May-13 19:56S 24°13' W 046°19'0 0.0
2018-May-13 19:30S 24°13' W 046°19'0 0.0
2018-May-13 18:57S 24°13' W 046°19'0 0.0
2018-May-13 18:29S 24°13' W 046°19'0 0.0
2018-May-13 17:59S 24°13' W 046°19'0 0.0
2018-May-13 17:29S 24°13' W 046°19'0 0.0
2018-May-13 16:56S 24°13' W 046°19'0 0.0
2018-May-13 16:21S 24°13' W 046°19'0 0.0
2018-May-13 15:57S 24°13' W 046°19'0 0.0
2018-May-13 15:26S 24°13' W 046°19'0 0.0
2018-May-13 14:57S 24°13' W 046°19'0 0.0
2018-May-13 14:29S 24°13' W 046°19'0 0.0
2018-May-13 13:56S 24°13' W 046°19'0 0.0
2018-May-13 13:27S 24°13' W 046°19'0 0.0
2018-May-13 12:56S 24°13' W 046°19'0 0.0
2018-May-13 12:29S 24°13' W 046°19'1 1.2
2018-May-13 12:00S 24°13' W 046°19'3 7.2
2018-May-13 11:30S 24°17' W 046°18'4 8.1
2018-May-13 11:00S 24°20' W 046°19'  
2018-May-10 22:31S 24°39' W 046°07'713.2
2018-May-10 21:59S 24°43' W 046°14'713.3
2018-May-10 21:29S 24°46' W 046°20'913.3
2018-May-10 20:48S 24°50' W 046°29'713.5
2018-May-10 20:17S 24°53' W 046°36'413.5
2018-May-10 20:00S 24°55' W 046°39'  

Dump ship's entire track history